Terminal Aerodrome Forecast
Issued by NWS Sioux Falls, SD

Home | Current Version | Previous Version | Text Only | Print | Product List | Glossary On
Versions: 1 2 3 4 5 6 7 8 9 10 11 12 13 14 15 16 17
000
FTUS43 KFSD 150533
TAFHON
TAF
KHON 150533Z 1506/1606 26006KT P6SM FEW110
     FM151100 33006KT P6SM BKN110
     FM151500 36013G20KT P6SM OVC015
     FM151700 35016G24KT 3SM -SN OVC020
      TEMPO 1518/1521 1SM -SN OVC012
     FM152200 35019G27KT 4SM -SN OVC020
     FM160000 34015G23KT P6SM BKN040
     FM160300 33013KT P6SM SCT080=

USA.gov is the U.S. government's official web portal to all federal, state and local government web resources and services.